sensor_id;sensor_type;location;lat;lon;timestamp;P1;durP1;ratioP1;P2;durP2;ratioP2
3939;SDS011;1984;48.312;9.244;2024-01-30T00:00:40;10.17;;;7.30;;
3939;SDS011;1984;48.312;9.244;2024-01-30T00:03:06;14.03;;;7.40;;
3939;SDS011;1984;48.312;9.244;2024-01-30T00:05:32;10.93;;;6.33;;
3939;SDS011;1984;48.312;9.244;2024-01-30T00:07:57;19.20;;;8.00;;
3939;SDS011;1984;48.312;9.244;2024-01-30T00:10:23;15.47;;;7.97;;
3939;SDS011;1984;48.312;9.244;2024-01-30T00:12:48;14.90;;;8.17;;
3939;SDS011;1984;48.312;9.244;2024-01-30T00:15:14;17.20;;;8.77;;
3939;SDS011;1984;48.312;9.244;2024-01-30T00:17:40;14.10;;;7.60;;
3939;SDS011;1984;48.312;9.244;2024-01-30T00:20:05;17.43;;;8.57;;
3939;SDS011;1984;48.312;9.244;2024-01-30T00:22:32;17.07;;;8.13;;
3939;SDS011;1984;48.312;9.244;2024-01-30T00:24:57;12.07;;;7.70;;
3939;SDS011;1984;48.312;9.244;2024-01-30T00:27:23;14.90;;;8.10;;
3939;SDS011;1984;48.312;9.244;2024-01-30T00:29:48;14.93;;;6.80;;
3939;SDS011;1984;48.312;9.244;2024-01-30T00:32:14;12.23;;;7.27;;
3939;SDS011;1984;48.312;9.244;2024-01-30T00:34:41;13.77;;;7.17;;
3939;SDS011;1984;48.312;9.244;2024-01-30T00:37:06;13.03;;;7.80;;
3939;SDS011;1984;48.312;9.244;2024-01-30T00:39:32;12.03;;;7.47;;
3939;SDS011;1984;48.312;9.244;2024-01-30T00:41:57;13.87;;;7.73;;
3939;SDS011;1984;48.312;9.244;2024-01-30T00:44:23;18.57;;;7.63;;
3939;SDS011;1984;48.312;9.244;2024-01-30T00:46:49;16.37;;;7.37;;
3939;SDS011;1984;48.312;9.244;2024-01-30T00:49:14;13.83;;;7.60;;
3939;SDS011;1984;48.312;9.244;2024-01-30T00:51:40;10.87;;;6.30;;
3939;SDS011;1984;48.312;9.244;2024-01-30T00:54:05;10.67;;;6.17;;
3939;SDS011;1984;48.312;9.244;2024-01-30T00:56:31;23.13;;;7.00;;
3939;SDS011;1984;48.312;9.244;2024-01-30T00:58:57;13.80;;;7.40;;
3939;SDS011;1984;48.312;9.244;2024-01-30T01:01:22;12.50;;;7.23;;
3939;SDS011;1984;48.312;9.244;2024-01-30T01:03:48;9.83;;;5.90;;
3939;SDS011;1984;48.312;9.244;2024-01-30T01:06:13;13.00;;;6.17;;
3939;SDS011;1984;48.312;9.244;2024-01-30T01:08:39;17.40;;;7.80;;
3939;SDS011;1984;48.312;9.244;2024-01-30T01:11:05;8.43;;;6.43;;
3939;SDS011;1984;48.312;9.244;2024-01-30T01:13:30;9.77;;;5.70;;
3939;SDS011;1984;48.312;9.244;2024-01-30T01:15:56;11.60;;;6.83;;
3939;SDS011;1984;48.312;9.244;2024-01-30T01:18:21;10.03;;;6.63;;
3939;SDS011;1984;48.312;9.244;2024-01-30T01:20:47;11.80;;;6.60;;
3939;SDS011;1984;48.312;9.244;2024-01-30T01:23:12;10.63;;;6.57;;
3939;SDS011;1984;48.312;9.244;2024-01-30T01:25:38;13.43;;;6.60;;
3939;SDS011;1984;48.312;9.244;2024-01-30T01:28:03;13.87;;;7.37;;
3939;SDS011;1984;48.312;9.244;2024-01-30T01:30:29;11.00;;;6.57;;
3939;SDS011;1984;48.312;9.244;2024-01-30T01:32:55;14.37;;;7.07;;
3939;SDS011;1984;48.312;9.244;2024-01-30T01:35:22;9.37;;;5.67;;
3939;SDS011;1984;48.312;9.244;2024-01-30T01:37:49;11.23;;;6.90;;
3939;SDS011;1984;48.312;9.244;2024-01-30T01:40:20;10.03;;;6.70;;
3939;SDS011;1984;48.312;9.244;2024-01-30T01:42:47;12.20;;;7.07;;
3939;SDS011;1984;48.312;9.244;2024-01-30T01:45:13;9.80;;;6.40;;
3939;SDS011;1984;48.312;9.244;2024-01-30T01:47:39;9.90;;;6.30;;
3939;SDS011;1984;48.312;9.244;2024-01-30T01:50:04;11.57;;;6.87;;
3939;SDS011;1984;48.312;9.244;2024-01-30T01:52:30;11.50;;;6.07;;
3939;SDS011;1984;48.312;9.244;2024-01-30T01:54:56;9.30;;;5.73;;
3939;SDS011;1984;48.312;9.244;2024-01-30T01:57:21;10.80;;;5.97;;
3939;SDS011;1984;48.312;9.244;2024-01-30T01:59:47;9.50;;;6.07;;
3939;SDS011;1984;48.312;9.244;2024-01-30T02:02:13;12.13;;;5.50;;
3939;SDS011;1984;48.312;9.244;2024-01-30T02:04:42;7.20;;;5.77;;
3939;SDS011;1984;48.312;9.244;2024-01-30T02:07:08;11.07;;;6.63;;
3939;SDS011;1984;48.312;9.244;2024-01-30T02:09:34;12.67;;;6.80;;
3939;SDS011;1984;48.312;9.244;2024-01-30T02:12:00;8.47;;;5.77;;
3939;SDS011;1984;48.312;9.244;2024-01-30T02:14:25;12.70;;;6.50;;
3939;SDS011;1984;48.312;9.244;2024-01-30T02:16:51;13.93;;;6.90;;
3939;SDS011;1984;48.312;9.244;2024-01-30T02:19:16;9.10;;;5.87;;
3939;SDS011;1984;48.312;9.244;2024-01-30T02:21:42;10.90;;;6.10;;
3939;SDS011;1984;48.312;9.244;2024-01-30T02:24:08;9.83;;;4.93;;
3939;SDS011;1984;48.312;9.244;2024-01-30T02:26:34;13.60;;;5.60;;
3939;SDS011;1984;48.312;9.244;2024-01-30T02:29:00;10.63;;;5.00;;
3939;SDS011;1984;48.312;9.244;2024-01-30T02:31:25;13.63;;;5.40;;
3939;SDS011;1984;48.312;9.244;2024-01-30T02:33:51;7.10;;;5.17;;
3939;SDS011;1984;48.312;9.244;2024-01-30T02:36:16;17.00;;;5.67;;
3939;SDS011;1984;48.312;9.244;2024-01-30T02:38:42;7.90;;;6.07;;
3939;SDS011;1984;48.312;9.244;2024-01-30T02:41:08;8.00;;;4.10;;
3939;SDS011;1984;48.312;9.244;2024-01-30T02:43:33;9.63;;;4.93;;
3939;SDS011;1984;48.312;9.244;2024-01-30T02:45:59;9.73;;;5.70;;
3939;SDS011;1984;48.312;9.244;2024-01-30T02:48:25;13.53;;;6.27;;
3939;SDS011;1984;48.312;9.244;2024-01-30T02:50:51;10.63;;;5.80;;
3939;SDS011;1984;48.312;9.244;2024-01-30T02:53:17;8.67;;;6.00;;
3939;SDS011;1984;48.312;9.244;2024-01-30T02:55:42;13.37;;;6.27;;
3939;SDS011;1984;48.312;9.244;2024-01-30T02:58:08;11.77;;;6.73;;
3939;SDS011;1984;48.312;9.244;2024-01-30T03:00:34;12.27;;;6.13;;
3939;SDS011;1984;48.312;9.244;2024-01-30T03:02:59;11.50;;;6.70;;
3939;SDS011;1984;48.312;9.244;2024-01-30T03:05:25;9.83;;;6.17;;
3939;SDS011;1984;48.312;9.244;2024-01-30T03:07:51;10.27;;;6.00;;
3939;SDS011;1984;48.312;9.244;2024-01-30T03:10:16;16.47;;;6.43;;
3939;SDS011;1984;48.312;9.244;2024-01-30T03:12:42;10.50;;;6.30;;
3939;SDS011;1984;48.312;9.244;2024-01-30T03:15:07;9.30;;;6.20;;
3939;SDS011;1984;48.312;9.244;2024-01-30T03:17:34;12.40;;;7.10;;
3939;SDS011;1984;48.312;9.244;2024-01-30T03:20:01;13.47;;;7.33;;
3939;SDS011;1984;48.312;9.244;2024-01-30T03:22:28;14.13;;;5.80;;
3939;SDS011;1984;48.312;9.244;2024-01-30T03:24:54;11.10;;;5.80;;
3939;SDS011;1984;48.312;9.244;2024-01-30T03:27:19;9.33;;;5.80;;
3939;SDS011;1984;48.312;9.244;2024-01-30T03:29:45;12.83;;;7.47;;
3939;SDS011;1984;48.312;9.244;2024-01-30T03:32:10;9.53;;;5.30;;
3939;SDS011;1984;48.312;9.244;2024-01-30T03:34:36;10.20;;;5.80;;
3939;SDS011;1984;48.312;9.244;2024-01-30T03:37:02;8.73;;;6.37;;
3939;SDS011;1984;48.312;9.244;2024-01-30T03:39:27;14.27;;;6.37;;
3939;SDS011;1984;48.312;9.244;2024-01-30T03:41:53;8.93;;;5.40;;
3939;SDS011;1984;48.312;9.244;2024-01-30T03:44:18;8.27;;;5.63;;
3939;SDS011;1984;48.312;9.244;2024-01-30T03:46:44;12.47;;;6.70;;
3939;SDS011;1984;48.312;9.244;2024-01-30T03:49:09;9.23;;;6.23;;
3939;SDS011;1984;48.312;9.244;2024-01-30T03:51:35;8.30;;;5.77;;
3939;SDS011;1984;48.312;9.244;2024-01-30T03:54:00;12.10;;;6.83;;
3939;SDS011;1984;48.312;9.244;2024-01-30T03:56:26;9.67;;;5.57;;
3939;SDS011;1984;48.312;9.244;2024-01-30T03:58:51;10.87;;;6.20;;
3939;SDS011;1984;48.312;9.244;2024-01-30T04:01:17;11.90;;;6.00;;
3939;SDS011;1984;48.312;9.244;2024-01-30T04:03:42;13.53;;;6.40;;
3939;SDS011;1984;48.312;9.244;2024-01-30T04:06:09;7.40;;;5.80;;
3939;SDS011;1984;48.312;9.244;2024-01-30T04:08:35;11.20;;;5.93;;
3939;SDS011;1984;48.312;9.244;2024-01-30T04:11:05;12.07;;;5.60;;
3939;SDS011;1984;48.312;9.244;2024-01-30T04:13:31;11.17;;;5.50;;
3939;SDS011;1984;48.312;9.244;2024-01-30T04:15:58;7.60;;;5.23;;
3939;SDS011;1984;48.312;9.244;2024-01-30T04:18:26;14.33;;;6.20;;
3939;SDS011;1984;48.312;9.244;2024-01-30T04:20:52;8.73;;;5.30;;
3939;SDS011;1984;48.312;9.244;2024-01-30T04:23:17;9.90;;;6.53;;
3939;SDS011;1984;48.312;9.244;2024-01-30T04:25:43;23.20;;;5.80;;
3939;SDS011;1984;48.312;9.244;2024-01-30T04:28:09;9.80;;;5.70;;
3939;SDS011;1984;48.312;9.244;2024-01-30T04:30:37;7.37;;;4.90;;
3939;SDS011;1984;48.312;9.244;2024-01-30T04:33:02;11.80;;;5.77;;
3939;SDS011;1984;48.312;9.244;2024-01-30T04:35:28;16.03;;;6.63;;
3939;SDS011;1984;48.312;9.244;2024-01-30T04:37:54;10.90;;;5.53;;
3939;SDS011;1984;48.312;9.244;2024-01-30T04:40:20;13.93;;;6.37;;
3939;SDS011;1984;48.312;9.244;2024-01-30T04:42:46;7.90;;;5.70;;
3939;SDS011;1984;48.312;9.244;2024-01-30T04:45:12;13.30;;;6.50;;
3939;SDS011;1984;48.312;9.244;2024-01-30T04:47:37;16.43;;;7.63;;
3939;SDS011;1984;48.312;9.244;2024-01-30T04:50:04;8.53;;;5.37;;
3939;SDS011;1984;48.312;9.244;2024-01-30T04:52:31;10.13;;;5.57;;
3939;SDS011;1984;48.312;9.244;2024-01-30T04:54:57;8.47;;;5.70;;
3939;SDS011;1984;48.312;9.244;2024-01-30T04:57:22;13.30;;;6.00;;
3939;SDS011;1984;48.312;9.244;2024-01-30T04:59:48;13.93;;;8.20;;
3939;SDS011;1984;48.312;9.244;2024-01-30T05:02:13;14.80;;;8.50;;
3939;SDS011;1984;48.312;9.244;2024-01-30T05:04:40;17.53;;;7.90;;
3939;SDS011;1984;48.312;9.244;2024-01-30T05:07:06;19.17;;;7.80;;
3939;SDS011;1984;48.312;9.244;2024-01-30T05:09:31;17.77;;;7.00;;
3939;SDS011;1984;48.312;9.244;2024-01-30T05:11:57;12.70;;;7.10;;
3939;SDS011;1984;48.312;9.244;2024-01-30T05:14:23;16.43;;;7.47;;
3939;SDS011;1984;48.312;9.244;2024-01-30T05:16:48;13.27;;;6.90;;
3939;SDS011;1984;48.312;9.244;2024-01-30T05:19:14;11.90;;;6.63;;
3939;SDS011;1984;48.312;9.244;2024-01-30T05:21:40;10.40;;;6.37;;
3939;SDS011;1984;48.312;9.244;2024-01-30T05:24:07;12.80;;;6.90;;
3939;SDS011;1984;48.312;9.244;2024-01-30T05:26:34;13.30;;;6.83;;
3939;SDS011;1984;48.312;9.244;2024-01-30T05:29:01;11.27;;;6.63;;
3939;SDS011;1984;48.312;9.244;2024-01-30T05:31:27;13.90;;;6.40;;
3939;SDS011;1984;48.312;9.244;2024-01-30T05:33:53;12.17;;;5.40;;
3939;SDS011;1984;48.312;9.244;2024-01-30T05:36:19;9.83;;;5.93;;
3939;SDS011;1984;48.312;9.244;2024-01-30T05:38:45;18.00;;;5.17;;
3939;SDS011;1984;48.312;9.244;2024-01-30T05:41:11;8.90;;;5.40;;
3939;SDS011;1984;48.312;9.244;2024-01-30T05:43:36;10.10;;;6.13;;
3939;SDS011;1984;48.312;9.244;2024-01-30T05:46:02;11.53;;;7.00;;
3939;SDS011;1984;48.312;9.244;2024-01-30T05:48:27;15.43;;;7.17;;
3939;SDS011;1984;48.312;9.244;2024-01-30T05:50:53;15.23;;;8.07;;
3939;SDS011;1984;48.312;9.244;2024-01-30T05:53:19;12.13;;;7.53;;
3939;SDS011;1984;48.312;9.244;2024-01-30T05:55:45;10.37;;;6.77;;
3939;SDS011;1984;48.312;9.244;2024-01-30T05:58:11;7.50;;;5.83;;
3939;SDS011;1984;48.312;9.244;2024-01-30T06:00:36;14.63;;;7.73;;
3939;SDS011;1984;48.312;9.244;2024-01-30T06:03:02;15.13;;;6.67;;
3939;SDS011;1984;48.312;9.244;2024-01-30T06:05:27;12.03;;;6.33;;
3939;SDS011;1984;48.312;9.244;2024-01-30T06:07:53;13.70;;;7.33;;
3939;SDS011;1984;48.312;9.244;2024-01-30T06:10:18;11.43;;;6.73;;
3939;SDS011;1984;48.312;9.244;2024-01-30T06:12:44;12.83;;;7.20;;
3939;SDS011;1984;48.312;9.244;2024-01-30T06:15:09;13.83;;;6.70;;
3939;SDS011;1984;48.312;9.244;2024-01-30T06:17:37;14.53;;;7.87;;
3939;SDS011;1984;48.312;9.244;2024-01-30T06:20:02;14.63;;;7.77;;
3939;SDS011;1984;48.312;9.244;2024-01-30T06:22:28;17.27;;;7.17;;
3939;SDS011;1984;48.312;9.244;2024-01-30T06:24:54;18.03;;;9.47;;
3939;SDS011;1984;48.312;9.244;2024-01-30T06:27:20;28.77;;;18.00;;
3939;SDS011;1984;48.312;9.244;2024-01-30T06:29:45;25.93;;;12.97;;
3939;SDS011;1984;48.312;9.244;2024-01-30T06:32:11;25.17;;;10.07;;
3939;SDS011;1984;48.312;9.244;2024-01-30T06:34:36;21.33;;;9.27;;
3939;SDS011;1984;48.312;9.244;2024-01-30T06:37:03;13.47;;;7.83;;
3939;SDS011;1984;48.312;9.244;2024-01-30T06:39:29;14.53;;;8.77;;
3939;SDS011;1984;48.312;9.244;2024-01-30T06:41:54;18.13;;;11.97;;
3939;SDS011;1984;48.312;9.244;2024-01-30T06:44:20;18.50;;;8.33;;
3939;SDS011;1984;48.312;9.244;2024-01-30T06:46:45;11.50;;;7.13;;
3939;SDS011;1984;48.312;9.244;2024-01-30T06:49:11;18.20;;;8.13;;
3939;SDS011;1984;48.312;9.244;2024-01-30T06:51:37;18.67;;;8.33;;
3939;SDS011;1984;48.312;9.244;2024-01-30T06:54:02;17.33;;;9.23;;
3939;SDS011;1984;48.312;9.244;2024-01-30T06:56:29;13.47;;;7.80;;
3939;SDS011;1984;48.312;9.244;2024-01-30T06:58:55;12.70;;;7.23;;
3939;SDS011;1984;48.312;9.244;2024-01-30T07:01:20;16.73;;;8.33;;
3939;SDS011;1984;48.312;9.244;2024-01-30T07:03:52;17.50;;;8.50;;
3939;SDS011;1984;48.312;9.244;2024-01-30T07:06:17;19.43;;;8.80;;
3939;SDS011;1984;48.312;9.244;2024-01-30T07:08:43;16.47;;;9.20;;
3939;SDS011;1984;48.312;9.244;2024-01-30T07:11:08;16.27;;;8.80;;
3939;SDS011;1984;48.312;9.244;2024-01-30T07:13:34;25.37;;;8.67;;
3939;SDS011;1984;48.312;9.244;2024-01-30T07:16:00;14.70;;;7.93;;
3939;SDS011;1984;48.312;9.244;2024-01-30T07:18:25;18.13;;;7.80;;
3939;SDS011;1984;48.312;9.244;2024-01-30T07:20:51;13.47;;;8.20;;
3939;SDS011;1984;48.312;9.244;2024-01-30T07:23:17;13.00;;;7.60;;
3939;SDS011;1984;48.312;9.244;2024-01-30T07:25:46;13.33;;;7.53;;
3939;SDS011;1984;48.312;9.244;2024-01-30T07:28:13;15.67;;;9.00;;
3939;SDS011;1984;48.312;9.244;2024-01-30T07:30:41;21.60;;;9.17;;
3939;SDS011;1984;48.312;9.244;2024-01-30T07:33:07;13.23;;;7.53;;
3939;SDS011;1984;48.312;9.244;2024-01-30T07:35:33;12.07;;;6.70;;
3939;SDS011;1984;48.312;9.244;2024-01-30T07:37:59;11.90;;;7.03;;
3939;SDS011;1984;48.312;9.244;2024-01-30T07:40:25;10.60;;;5.87;;
3939;SDS011;1984;48.312;9.244;2024-01-30T07:42:50;12.47;;;7.57;;
3939;SDS011;1984;48.312;9.244;2024-01-30T07:45:18;10.77;;;5.70;;
3939;SDS011;1984;48.312;9.244;2024-01-30T07:47:47;10.67;;;6.57;;
3939;SDS011;1984;48.312;9.244;2024-01-30T07:50:16;12.13;;;6.57;;
3939;SDS011;1984;48.312;9.244;2024-01-30T07:52:42;11.93;;;5.90;;
3939;SDS011;1984;48.312;9.244;2024-01-30T07:55:08;10.20;;;6.90;;
3939;SDS011;1984;48.312;9.244;2024-01-30T07:57:34;10.97;;;5.80;;
3939;SDS011;1984;48.312;9.244;2024-01-30T08:00:02;11.67;;;5.73;;
3939;SDS011;1984;48.312;9.244;2024-01-30T08:02:28;12.97;;;6.40;;
3939;SDS011;1984;48.312;9.244;2024-01-30T08:04:54;15.60;;;6.40;;
3939;SDS011;1984;48.312;9.244;2024-01-30T08:07:19;8.83;;;5.23;;
3939;SDS011;1984;48.312;9.244;2024-01-30T08:09:47;11.87;;;5.60;;
3939;SDS011;1984;48.312;9.244;2024-01-30T08:12:12;9.37;;;5.40;;
3939;SDS011;1984;48.312;9.244;2024-01-30T08:14:38;11.67;;;4.70;;
3939;SDS011;1984;48.312;9.244;2024-01-30T08:17:04;7.80;;;4.80;;
3939;SDS011;1984;48.312;9.244;2024-01-30T08:19:32;13.97;;;5.60;;
3939;SDS011;1984;48.312;9.244;2024-01-30T08:21:58;10.80;;;6.40;;
3939;SDS011;1984;48.312;9.244;2024-01-30T08:24:23;20.30;;;9.83;;
3939;SDS011;1984;48.312;9.244;2024-01-30T08:26:49;21.87;;;11.67;;
3939;SDS011;1984;48.312;9.244;2024-01-30T08:29:14;25.40;;;13.43;;
3939;SDS011;1984;48.312;9.244;2024-01-30T08:31:40;26.00;;;13.87;;
3939;SDS011;1984;48.312;9.244;2024-01-30T08:34:05;24.43;;;12.13;;
3939;SDS011;1984;48.312;9.244;2024-01-30T08:36:31;30.30;;;12.63;;
3939;SDS011;1984;48.312;9.244;2024-01-30T08:38:57;37.13;;;16.17;;
3939;SDS011;1984;48.312;9.244;2024-01-30T08:41:23;39.43;;;17.70;;
3939;SDS011;1984;48.312;9.244;2024-01-30T08:43:49;36.77;;;17.93;;
3939;SDS011;1984;48.312;9.244;2024-01-30T08:46:17;33.00;;;17.50;;
3939;SDS011;1984;48.312;9.244;2024-01-30T08:48:43;36.53;;;18.97;;
3939;SDS011;1984;48.312;9.244;2024-01-30T08:51:09;48.10;;;20.90;;
3939;SDS011;1984;48.312;9.244;2024-01-30T08:53:34;35.90;;;19.20;;
3939;SDS011;1984;48.312;9.244;2024-01-30T08:56:01;36.83;;;20.40;;
3939;SDS011;1984;48.312;9.244;2024-01-30T08:58:27;30.03;;;16.53;;
3939;SDS011;1984;48.312;9.244;2024-01-30T09:00:53;21.53;;;13.30;;
3939;SDS011;1984;48.312;9.244;2024-01-30T09:03:18;31.07;;;11.10;;
3939;SDS011;1984;48.312;9.244;2024-01-30T09:05:44;24.40;;;13.87;;
3939;SDS011;1984;48.312;9.244;2024-01-30T09:08:09;22.80;;;13.80;;
3939;SDS011;1984;48.312;9.244;2024-01-30T09:10:35;21.27;;;13.20;;
3939;SDS011;1984;48.312;9.244;2024-01-30T09:13:01;23.80;;;14.70;;
3939;SDS011;1984;48.312;9.244;2024-01-30T09:15:26;20.40;;;14.07;;
3939;SDS011;1984;48.312;9.244;2024-01-30T09:17:52;18.50;;;12.27;;
3939;SDS011;1984;48.312;9.244;2024-01-30T09:20:17;21.07;;;12.40;;
3939;SDS011;1984;48.312;9.244;2024-01-30T09:22:45;18.07;;;11.27;;
3939;SDS011;1984;48.312;9.244;2024-01-30T09:25:10;15.10;;;10.23;;
3939;SDS011;1984;48.312;9.244;2024-01-30T09:27:36;19.43;;;9.40;;
3939;SDS011;1984;48.312;9.244;2024-01-30T09:30:01;14.73;;;10.07;;
3939;SDS011;1984;48.312;9.244;2024-01-30T09:32:28;17.67;;;9.73;;
3939;SDS011;1984;48.312;9.244;2024-01-30T09:34:53;16.47;;;8.97;;
3939;SDS011;1984;48.312;9.244;2024-01-30T09:37:19;14.23;;;8.27;;
3939;SDS011;1984;48.312;9.244;2024-01-30T09:39:45;21.97;;;12.63;;
3939;SDS011;1984;48.312;9.244;2024-01-30T09:42:28;34.37;;;16.80;;
3939;SDS011;1984;48.312;9.244;2024-01-30T09:45:01;24.50;;;13.90;;
3939;SDS011;1984;48.312;9.244;2024-01-30T09:47:31;22.10;;;11.83;;
3939;SDS011;1984;48.312;9.244;2024-01-30T09:50:06;18.03;;;11.00;;
3939;SDS011;1984;48.312;9.244;2024-01-30T09:52:33;19.83;;;11.67;;
3939;SDS011;1984;48.312;9.244;2024-01-30T09:54:59;20.33;;;10.50;;
3939;SDS011;1984;48.312;9.244;2024-01-30T09:57:25;13.17;;;7.97;;
3939;SDS011;1984;48.312;9.244;2024-01-30T09:59:51;13.17;;;8.27;;
3939;SDS011;1984;48.312;9.244;2024-01-30T10:02:18;13.60;;;8.93;;
3939;SDS011;1984;48.312;9.244;2024-01-30T10:04:47;14.70;;;8.47;;
3939;SDS011;1984;48.312;9.244;2024-01-30T10:07:13;12.07;;;7.67;;
3939;SDS011;1984;48.312;9.244;2024-01-30T10:09:39;14.07;;;7.83;;
3939;SDS011;1984;48.312;9.244;2024-01-30T10:12:05;9.60;;;6.60;;
3939;SDS011;1984;48.312;9.244;2024-01-30T10:14:32;12.63;;;7.73;;
3939;SDS011;1984;48.312;9.244;2024-01-30T10:16:58;10.70;;;7.73;;
3939;SDS011;1984;48.312;9.244;2024-01-30T10:19:24;15.37;;;7.90;;
3939;SDS011;1984;48.312;9.244;2024-01-30T10:21:49;13.17;;;7.87;;
3939;SDS011;1984;48.312;9.244;2024-01-30T10:24:15;12.80;;;7.93;;
3939;SDS011;1984;48.312;9.244;2024-01-30T10:26:43;13.03;;;8.83;;
3939;SDS011;1984;48.312;9.244;2024-01-30T10:29:09;12.20;;;8.07;;
3939;SDS011;1984;48.312;9.244;2024-01-30T10:31:34;12.27;;;7.77;;
3939;SDS011;1984;48.312;9.244;2024-01-30T10:34:00;11.73;;;7.80;;
3939;SDS011;1984;48.312;9.244;2024-01-30T10:36:28;12.83;;;7.47;;
3939;SDS011;1984;48.312;9.244;2024-01-30T10:38:59;15.00;;;7.90;;
3939;SDS011;1984;48.312;9.244;2024-01-30T10:41:27;11.50;;;6.93;;
3939;SDS011;1984;48.312;9.244;2024-01-30T10:44:09;10.40;;;7.10;;
3939;SDS011;1984;48.312;9.244;2024-01-30T10:46:35;13.27;;;7.10;;
3939;SDS011;1984;48.312;9.244;2024-01-30T10:49:03;14.00;;;7.43;;
3939;SDS011;1984;48.312;9.244;2024-01-30T10:51:30;12.27;;;6.43;;
3939;SDS011;1984;48.312;9.244;2024-01-30T10:53:57;9.07;;;5.70;;
3939;SDS011;1984;48.312;9.244;2024-01-30T10:56:23;9.07;;;5.80;;
3939;SDS011;1984;48.312;9.244;2024-01-30T10:58:53;13.53;;;6.90;;
3939;SDS011;1984;48.312;9.244;2024-01-30T11:01:19;21.00;;;13.33;;
3939;SDS011;1984;48.312;9.244;2024-01-30T11:03:48;21.30;;;12.27;;
3939;SDS011;1984;48.312;9.244;2024-01-30T11:06:17;13.40;;;8.93;;
3939;SDS011;1984;48.312;9.244;2024-01-30T11:08:45;5.90;;;4.03;;
3939;SDS011;1984;48.312;9.244;2024-01-30T11:11:11;4.70;;;3.40;;
3939;SDS011;1984;48.312;9.244;2024-01-30T11:13:37;5.00;;;3.03;;
3939;SDS011;1984;48.312;9.244;2024-01-30T11:16:03;7.27;;;3.37;;
3939;SDS011;1984;48.312;9.244;2024-01-30T11:18:30;11.40;;;3.87;;
3939;SDS011;1984;48.312;9.244;2024-01-30T11:20:56;14.53;;;4.90;;
3939;SDS011;1984;48.312;9.244;2024-01-30T11:23:29;7.57;;;4.07;;
3939;SDS011;1984;48.312;9.244;2024-01-30T11:25:54;7.17;;;4.73;;
3939;SDS011;1984;48.312;9.244;2024-01-30T11:28:21;5.93;;;3.80;;
3939;SDS011;1984;48.312;9.244;2024-01-30T11:30:47;5.57;;;3.00;;
3939;SDS011;1984;48.312;9.244;2024-01-30T11:33:15;2.97;;;2.30;;
3939;SDS011;1984;48.312;9.244;2024-01-30T11:35:52;6.33;;;2.30;;
3939;SDS011;1984;48.312;9.244;2024-01-30T11:38:18;6.13;;;2.00;;
3939;SDS011;1984;48.312;9.244;2024-01-30T11:40:44;3.37;;;2.90;;
3939;SDS011;1984;48.312;9.244;2024-01-30T11:43:10;2.90;;;2.17;;
3939;SDS011;1984;48.312;9.244;2024-01-30T11:45:37;4.00;;;2.43;;
3939;SDS011;1984;48.312;9.244;2024-01-30T11:48:03;2.80;;;2.13;;
3939;SDS011;1984;48.312;9.244;2024-01-30T11:50:35;4.33;;;2.30;;
3939;SDS011;1984;48.312;9.244;2024-01-30T11:53:03;6.73;;;3.10;;
3939;SDS011;1984;48.312;9.244;2024-01-30T11:55:30;3.10;;;2.33;;
3939;SDS011;1984;48.312;9.244;2024-01-30T11:57:56;3.50;;;2.47;;
3939;SDS011;1984;48.312;9.244;2024-01-30T12:00:23;4.40;;;2.30;;
3939;SDS011;1984;48.312;9.244;2024-01-30T12:02:52;4.63;;;2.77;;
3939;SDS011;1984;48.312;9.244;2024-01-30T12:05:22;4.97;;;3.27;;
3939;SDS011;1984;48.312;9.244;2024-01-30T12:07:48;10.23;;;3.80;;
3939;SDS011;1984;48.312;9.244;2024-01-30T12:10:13;7.60;;;2.97;;
3939;SDS011;1984;48.312;9.244;2024-01-30T12:12:40;4.20;;;3.00;;
3939;SDS011;1984;48.312;9.244;2024-01-30T12:15:08;8.70;;;2.73;;
3939;SDS011;1984;48.312;9.244;2024-01-30T12:17:34;4.23;;;2.70;;
3939;SDS011;1984;48.312;9.244;2024-01-30T12:20:33;3.63;;;2.63;;
3939;SDS011;1984;48.312;9.244;2024-01-30T12:22:51;4.20;;;2.80;;
3939;SDS011;1984;48.312;9.244;2024-01-30T12:25:19;4.03;;;2.67;;
3939;SDS011;1984;48.312;9.244;2024-01-30T12:27:46;7.63;;;2.90;;
3939;SDS011;1984;48.312;9.244;2024-01-30T12:30:16;7.33;;;3.40;;
3939;SDS011;1984;48.312;9.244;2024-01-30T12:32:46;4.37;;;3.20;;
3939;SDS011;1984;48.312;9.244;2024-01-30T12:35:14;6.70;;;3.47;;
3939;SDS011;1984;48.312;9.244;2024-01-30T12:37:42;6.23;;;2.60;;
3939;SDS011;1984;48.312;9.244;2024-01-30T12:40:09;3.57;;;2.80;;
3939;SDS011;1984;48.312;9.244;2024-01-30T12:42:38;5.03;;;3.30;;
3939;SDS011;1984;48.312;9.244;2024-01-30T12:45:04;9.33;;;3.33;;
3939;SDS011;1984;48.312;9.244;2024-01-30T12:47:30;5.10;;;3.50;;
3939;SDS011;1984;48.312;9.244;2024-01-30T12:49:56;5.20;;;3.17;;
3939;SDS011;1984;48.312;9.244;2024-01-30T12:52:22;5.73;;;3.23;;
3939;SDS011;1984;48.312;9.244;2024-01-30T12:54:49;4.13;;;2.80;;
3939;SDS011;1984;48.312;9.244;2024-01-30T12:57:15;11.97;;;3.73;;
3939;SDS011;1984;48.312;9.244;2024-01-30T12:59:41;7.20;;;3.60;;
3939;SDS011;1984;48.312;9.244;2024-01-30T13:02:07;9.70;;;2.90;;
3939;SDS011;1984;48.312;9.244;2024-01-30T13:04:33;4.83;;;2.97;;
3939;SDS011;1984;48.312;9.244;2024-01-30T13:06:59;9.53;;;5.00;;
3939;SDS011;1984;48.312;9.244;2024-01-30T13:09:29;6.50;;;3.57;;
3939;SDS011;1984;48.312;9.244;2024-01-30T13:11:56;12.97;;;4.50;;
3939;SDS011;1984;48.312;9.244;2024-01-30T13:14:21;8.97;;;5.30;;
3939;SDS011;1984;48.312;9.244;2024-01-30T13:16:47;8.17;;;4.77;;
3939;SDS011;1984;48.312;9.244;2024-01-30T13:19:12;8.37;;;4.60;;
3939;SDS011;1984;48.312;9.244;2024-01-30T13:21:38;8.93;;;5.27;;
3939;SDS011;1984;48.312;9.244;2024-01-30T13:24:04;12.03;;;7.27;;
3939;SDS011;1984;48.312;9.244;2024-01-30T13:26:31;8.83;;;5.57;;
3939;SDS011;1984;48.312;9.244;2024-01-30T13:28:57;10.10;;;5.23;;
3939;SDS011;1984;48.312;9.244;2024-01-30T13:31:23;8.47;;;5.33;;
3939;SDS011;1984;48.312;9.244;2024-01-30T13:33:48;7.97;;;4.47;;
3939;SDS011;1984;48.312;9.244;2024-01-30T13:36:14;7.13;;;4.40;;
3939;SDS011;1984;48.312;9.244;2024-01-30T13:38:40;7.47;;;4.47;;
3939;SDS011;1984;48.312;9.244;2024-01-30T13:41:05;6.93;;;4.50;;
3939;SDS011;1984;48.312;9.244;2024-01-30T13:43:31;9.43;;;5.00;;
3939;SDS011;1984;48.312;9.244;2024-01-30T13:45:57;5.20;;;4.13;;
3939;SDS011;1984;48.312;9.244;2024-01-30T13:48:23;5.50;;;4.07;;
3939;SDS011;1984;48.312;9.244;2024-01-30T13:50:49;9.93;;;5.20;;
3939;SDS011;1984;48.312;9.244;2024-01-30T13:53:15;9.10;;;5.60;;
3939;SDS011;1984;48.312;9.244;2024-01-30T13:55:40;9.63;;;5.80;;
3939;SDS011;1984;48.312;9.244;2024-01-30T13:58:06;7.57;;;4.77;;
3939;SDS011;1984;48.312;9.244;2024-01-30T14:00:32;20.77;;;9.50;;
3939;SDS011;1984;48.312;9.244;2024-01-30T14:02:58;17.23;;;8.73;;
3939;SDS011;1984;48.312;9.244;2024-01-30T14:05:24;9.77;;;6.37;;
3939;SDS011;1984;48.312;9.244;2024-01-30T14:07:50;13.57;;;7.73;;
3939;SDS011;1984;48.312;9.244;2024-01-30T14:10:19;10.93;;;6.40;;
3939;SDS011;1984;48.312;9.244;2024-01-30T14:12:45;9.90;;;5.43;;
3939;SDS011;1984;48.312;9.244;2024-01-30T14:15:13;8.07;;;5.17;;
3939;SDS011;1984;48.312;9.244;2024-01-30T14:17:40;15.33;;;5.90;;
3939;SDS011;1984;48.312;9.244;2024-01-30T14:20:06;12.93;;;5.90;;
3939;SDS011;1984;48.312;9.244;2024-01-30T14:22:33;9.97;;;5.87;;
3939;SDS011;1984;48.312;9.244;2024-01-30T14:25:00;11.27;;;6.63;;
3939;SDS011;1984;48.312;9.244;2024-01-30T14:27:28;10.60;;;6.80;;
3939;SDS011;1984;48.312;9.244;2024-01-30T14:29:53;13.83;;;7.27;;
3939;SDS011;1984;48.312;9.244;2024-01-30T14:32:19;17.60;;;7.90;;
3939;SDS011;1984;48.312;9.244;2024-01-30T14:34:44;17.83;;;8.17;;
3939;SDS011;1984;48.312;9.244;2024-01-30T14:37:09;17.87;;;8.90;;
3939;SDS011;1984;48.312;9.244;2024-01-30T14:39:35;13.90;;;7.53;;
3939;SDS011;1984;48.312;9.244;2024-01-30T14:42:02;18.10;;;8.30;;
3939;SDS011;1984;48.312;9.244;2024-01-30T14:44:29;17.50;;;8.30;;
3939;SDS011;1984;48.312;9.244;2024-01-30T14:46:55;11.47;;;7.13;;
3939;SDS011;1984;48.312;9.244;2024-01-30T14:49:21;28.97;;;9.83;;
3939;SDS011;1984;48.312;9.244;2024-01-30T14:51:46;27.40;;;10.33;;
3939;SDS011;1984;48.312;9.244;2024-01-30T14:54:12;14.13;;;7.80;;
3939;SDS011;1984;48.312;9.244;2024-01-30T14:56:37;14.33;;;7.27;;
3939;SDS011;1984;48.312;9.244;2024-01-30T14:59:03;9.30;;;6.60;;